createdAt,value
2018-02-14T00:00:09.945Z,101464.53
2018-02-14T00:01:15.288Z,101470.02
2018-02-14T00:02:20.254Z,101467.60
2018-02-14T00:03:26.779Z,101474.72
2018-02-14T00:04:31.665Z,101466.09
2018-02-14T00:05:36.956Z,101472.66
2018-02-14T00:06:42.878Z,101460.93
2018-02-14T00:07:47.182Z,101470.23
2018-02-14T00:08:52.247Z,101465.58
2018-02-14T00:09:57.090Z,101463.32
2018-02-14T00:11:02.595Z,101467.73
2018-02-14T00:12:07.365Z,101474.94
2018-02-14T00:13:13.150Z,101472.31
2018-02-14T00:14:17.916Z,101462.70
2018-02-14T00:15:22.950Z,101469.64
2018-02-14T00:16:27.925Z,101475.13
2018-02-14T00:17:32.803Z,101472.27
2018-02-14T00:18:37.696Z,101473.42
2018-02-14T00:19:42.898Z,101471.20
2018-02-14T00:20:47.782Z,101479.37
2018-02-14T00:21:52.655Z,101476.40
2018-02-14T00:22:58.223Z,101477.52
2018-02-14T00:24:03.169Z,101480.91
2018-02-14T00:25:08.617Z,101477.33
2018-02-14T00:26:13.294Z,101482.73
2018-02-14T00:27:31.222Z,101481.88
2018-02-14T00:28:36.576Z,101479.46
2018-02-14T00:29:42.052Z,101477.22
2018-02-14T00:30:47.687Z,101478.66
2018-02-14T00:31:53.211Z,101481.52
2018-02-14T00:32:58.184Z,101487.29
2018-02-14T00:34:03.618Z,101485.58
2018-02-14T00:35:08.449Z,101487.52
2018-02-14T00:36:13.913Z,101491.42
2018-02-14T00:37:19.715Z,101487.53
2018-02-14T00:38:26.146Z,101487.16
2018-02-14T00:39:31.381Z,101490.09
2018-02-14T00:40:40.830Z,101491.47
2018-02-14T00:41:46.774Z,101495.22
2018-02-14T00:42:52.296Z,101499.21
2018-02-14T00:43:57.017Z,101490.95
2018-02-14T00:45:03.946Z,101493.65
2018-02-14T00:46:09.139Z,101493.48
2018-02-14T00:47:14.002Z,101496.70
2018-02-14T00:48:19.610Z,101496.88
2018-02-14T00:49:24.416Z,101505.88
2018-02-14T00:50:29.533Z,101495.39
2018-02-14T00:51:34.984Z,101492.30
2018-02-14T00:52:39.920Z,101496.61
2018-02-14T00:53:47.273Z,101494.69
2018-02-14T00:54:53.042Z,101494.20
2018-02-14T00:55:58.238Z,101496.48
2018-02-14T00:57:04.016Z,101501.08
2018-02-14T00:58:08.949Z,101490.73
2018-02-14T00:59:13.558Z,101486.16
2018-02-14T01:00:18.892Z,101493.03
2018-02-14T01:01:24.363Z,101500.14
2018-02-14T01:02:31.943Z,101495.55
2018-02-14T01:03:36.799Z,101494.06
2018-02-14T01:04:41.633Z,101492.13
2018-02-14T01:05:46.672Z,101496.47
2018-02-14T01:06:51.694Z,101499.38
2018-02-14T01:07:57.192Z,101500.38
2018-02-14T01:09:02.811Z,101496.73
2018-02-14T01:10:08.254Z,101494.34
2018-02-14T01:11:13.215Z,101494.24
2018-02-14T01:12:18.089Z,101495.20
2018-02-14T01:13:22.548Z,101503.20
2018-02-14T01:14:27.356Z,101500.49
2018-02-14T01:15:34.358Z,101502.88
2018-02-14T01:16:39.902Z,101499.28
2018-02-14T01:17:45.053Z,101503.15
2018-02-14T01:18:49.267Z,101501.84
2018-02-14T01:19:58.319Z,101502.34
2018-02-14T01:21:04.033Z,101503.38
2018-02-14T01:22:09.464Z,101507.03
2018-02-14T01:23:14.791Z,101507.08
2018-02-14T01:24:20.106Z,101505.92
2018-02-14T01:25:25.023Z,101504.53
2018-02-14T01:26:30.504Z,101504.79
2018-02-14T01:27:37.507Z,101504.28
2018-02-14T01:28:42.298Z,101503.59
2018-02-14T01:29:47.242Z,101503.16
2018-02-14T01:30:52.655Z,101501.61
2018-02-14T01:31:58.129Z,101501.75
2018-02-14T01:33:03.667Z,101498.71
2018-02-14T01:34:09.923Z,101495.02
2018-02-14T01:35:15.663Z,101504.33
2018-02-14T01:36:20.248Z,101500.26
2018-02-14T01:37:25.162Z,101505.83
2018-02-14T01:38:29.849Z,101503.91
2018-02-14T01:39:35.279Z,101508.88
2018-02-14T01:40:40.415Z,101506.05
2018-02-14T01:41:45.339Z,101510.02
2018-02-14T01:42:50.827Z,101506.38
2018-02-14T01:43:56.419Z,101505.84
2018-02-14T01:45:03.470Z,101503.45
2018-02-14T01:46:07.712Z,101506.50
2018-02-14T01:47:12.945Z,101501.92
2018-02-14T01:48:17.757Z,101499.41
2018-02-14T01:49:23.124Z,101505.85
2018-02-14T01:50:37.420Z,101503.55
2018-02-14T01:51:42.236Z,101506.61
2018-02-14T01:52:48.591Z,101503.95
2018-02-14T01:53:53.914Z,101507.77
2018-02-14T01:54:59.266Z,101512.37
2018-02-14T01:56:04.131Z,101510.52
2018-02-14T01:57:09.566Z,101504.81
2018-02-14T01:58:14.457Z,101509.06
2018-02-14T01:59:19.283Z,101504.39
2018-02-14T02:00:36.457Z,101510.33
2018-02-14T02:01:41.527Z,101509.84
2018-02-14T02:02:46.948Z,101506.67
2018-02-14T02:03:51.860Z,101511.77
2018-02-14T02:04:57.241Z,101510.09
2018-02-14T02:06:02.317Z,101509.22
2018-02-14T02:07:07.257Z,101510.93
2018-02-14T02:08:12.070Z,101506.69
2018-02-14T02:09:17.089Z,101508.97
2018-02-14T02:10:22.575Z,101517.69
2018-02-14T02:11:27.394Z,101515.20
2018-02-14T02:12:33.275Z,101508.61
2018-02-14T02:13:38.222Z,101510.02
2018-02-14T02:14:43.738Z,101509.00
2018-02-14T02:15:49.881Z,101506.12
2018-02-14T02:16:55.457Z,101502.27
2018-02-14T02:18:00.849Z,101499.62
2018-02-14T02:19:07.930Z,101500.09
2018-02-14T02:20:14.259Z,101497.83
2018-02-14T02:21:19.031Z,101508.31
2018-02-14T02:22:31.951Z,101502.78
2018-02-14T02:23:36.221Z,101500.67
2018-02-14T02:24:42.081Z,101500.74
2018-02-14T02:25:47.975Z,101500.52
2018-02-14T02:26:53.685Z,101501.09
2018-02-14T02:27:59.078Z,101501.85
2018-02-14T02:29:03.317Z,101509.30
2018-02-14T02:30:12.376Z,101507.31
2018-02-14T02:31:17.127Z,101506.36
2018-02-14T02:32:23.473Z,101499.31
2018-02-14T02:33:28.197Z,101495.57
2018-02-14T02:34:33.848Z,101502.13
2018-02-14T02:35:38.453Z,101500.44
2018-02-14T02:36:43.915Z,101503.11
2018-02-14T02:37:48.828Z,101497.33
2018-02-14T02:38:54.349Z,101501.23
2018-02-14T02:40:09.418Z,101507.00
2018-02-14T02:41:14.629Z,101504.85
2018-02-14T02:42:19.498Z,101502.66
2018-02-14T02:43:25.628Z,101505.30
2018-02-14T02:44:29.947Z,101508.58
2018-02-14T02:45:36.866Z,101512.61
2018-02-14T02:46:42.123Z,101512.14
2018-02-14T02:47:47.533Z,101514.55
2018-02-14T02:48:52.998Z,101511.10
2018-02-14T02:50:00.374Z,101515.84
2018-02-14T02:51:07.720Z,101513.00
2018-02-14T02:52:13.031Z,101514.65
2018-02-14T02:53:22.101Z,101509.83
2018-02-14T02:54:31.642Z,101519.56
2018-02-14T02:55:37.047Z,101517.77
2018-02-14T02:56:41.620Z,101522.11
2018-02-14T02:57:47.053Z,101522.22
2018-02-14T02:58:53.151Z,101517.95
2018-02-14T03:00:01.074Z,101520.70
2018-02-14T03:01:07.238Z,101522.27
2018-02-14T03:02:14.714Z,101522.27
2018-02-14T03:03:20.163Z,101520.58
2018-02-14T03:04:24.904Z,101525.96
2018-02-14T03:05:31.922Z,101520.05
2018-02-14T03:06:37.190Z,101522.39
2018-02-14T03:07:42.547Z,101522.67
2018-02-14T03:08:56.361Z,101518.54
2018-02-14T03:10:02.718Z,101530.53
2018-02-14T03:11:07.979Z,101526.47
2018-02-14T03:12:12.642Z,101534.85
2018-02-14T03:13:23.835Z,101532.61
2018-02-14T03:14:28.565Z,101534.98
2018-02-14T03:15:33.693Z,101534.02
2018-02-14T03:16:38.402Z,101533.05
2018-02-14T03:17:43.272Z,101534.98
2018-02-14T03:18:48.097Z,101539.16
2018-02-14T03:19:52.621Z,101534.72
2018-02-14T03:20:58.571Z,101536.20
2018-02-14T03:22:03.911Z,101536.31
2018-02-14T03:23:09.314Z,101544.89
2018-02-14T03:24:15.889Z,101543.89
2018-02-14T03:25:21.833Z,101548.02
2018-02-14T03:26:27.052Z,101546.96
2018-02-14T03:27:32.431Z,101544.02
2018-02-14T03:28:37.305Z,101550.37
2018-02-14T03:29:42.704Z,101544.95
2018-02-14T03:30:48.323Z,101551.11
2018-02-14T03:31:53.974Z,101555.61
2018-02-14T03:32:59.710Z,101552.48
2018-02-14T03:34:09.335Z,101556.32
2018-02-14T03:35:15.672Z,101555.78
2018-02-14T03:36:21.208Z,101562.01
2018-02-14T03:37:28.094Z,101559.84
2018-02-14T03:38:34.854Z,101566.12
2018-02-14T03:39:40.291Z,101570.14
2018-02-14T03:40:45.813Z,101558.55
2018-02-14T03:41:50.024Z,101568.73
2018-02-14T03:42:57.206Z,101564.58
2018-02-14T03:44:01.947Z,101562.38
2018-02-14T03:45:08.246Z,101571.08
2018-02-14T03:46:12.740Z,101574.00
2018-02-14T03:47:16.899Z,101571.64
2018-02-14T03:48:21.074Z,101569.58
2018-02-14T03:49:26.816Z,101569.22
2018-02-14T03:50:31.412Z,101573.22
2018-02-14T03:51:36.419Z,101573.77
2018-02-14T03:52:42.114Z,101574.78
2018-02-14T03:53:46.676Z,101572.66
2018-02-14T03:54:51.274Z,101577.28
2018-02-14T03:55:56.573Z,101568.47
2018-02-14T03:57:02.103Z,101575.03
2018-02-14T03:58:07.703Z,101575.60
2018-02-14T03:59:15.242Z,101574.45
2018-02-14T04:00:22.512Z,101577.30
2018-02-14T04:01:28.084Z,101580.19
2018-02-14T04:02:34.056Z,101579.75
2018-02-14T04:03:40.023Z,101575.27
2018-02-14T04:04:44.757Z,101577.12
2018-02-14T04:05:49.130Z,101574.27
2018-02-14T04:06:54.279Z,101581.42
2018-02-14T04:08:00.698Z,101577.48
2018-02-14T04:09:06.055Z,101580.88
2018-02-14T04:10:12.120Z,101584.55
2018-02-14T04:11:26.264Z,101579.25
2018-02-14T04:12:32.105Z,101584.48
2018-02-14T04:13:37.018Z,101590.75
2018-02-14T04:14:41.243Z,101582.50
2018-02-14T04:15:46.643Z,101588.40
2018-02-14T04:16:51.415Z,101593.20
2018-02-14T04:17:57.357Z,101592.91
2018-02-14T04:19:02.798Z,101595.91
2018-02-14T04:20:07.830Z,101596.80
2018-02-14T04:21:12.826Z,101599.05
2018-02-14T04:22:17.317Z,101599.80
2018-02-14T04:23:22.234Z,101601.40
2018-02-14T04:24:27.153Z,101598.16
2018-02-14T04:25:32.200Z,101599.26
2018-02-14T04:26:38.515Z,101601.25
2018-02-14T04:27:43.363Z,101602.42
2018-02-14T04:28:48.139Z,101602.11
2018-02-14T04:29:52.923Z,101598.45
2018-02-14T04:30:58.605Z,101601.99
2018-02-14T04:32:04.096Z,101598.07
2018-02-14T04:33:09.189Z,101607.16
2018-02-14T04:34:13.414Z,101604.42
2018-02-14T04:35:18.157Z,101607.27
2018-02-14T04:36:23.368Z,101608.69
2018-02-14T04:37:28.226Z,101610.88
2018-02-14T04:38:33.848Z,101603.92
2018-02-14T04:39:39.074Z,101613.22
2018-02-14T04:40:43.891Z,101607.76
2018-02-14T04:41:48.136Z,101611.09
2018-02-14T04:42:52.472Z,101607.80
2018-02-14T04:43:57.648Z,101604.52
2018-02-14T04:45:03.344Z,101611.33
2018-02-14T04:46:08.712Z,101607.88
2018-02-14T04:47:14.219Z,101611.13
2018-02-14T04:48:22.310Z,101603.92
2018-02-14T04:49:27.120Z,101615.14
2018-02-14T04:50:33.731Z,101613.83
2018-02-14T04:51:39.260Z,101622.25
2018-02-14T04:52:45.303Z,101621.53
2018-02-14T04:53:50.516Z,101613.95
2018-02-14T04:54:57.077Z,101617.64
2018-02-14T04:56:03.254Z,101611.97
2018-02-14T04:57:09.759Z,101619.62
2018-02-14T04:58:15.182Z,101615.17
2018-02-14T04:59:19.949Z,101615.25
2018-02-14T05:00:24.893Z,101610.08
2018-02-14T05:01:29.133Z,101612.78
2018-02-14T05:02:34.700Z,101615.28
2018-02-14T05:03:40.141Z,101617.17
2018-02-14T05:04:44.621Z,101614.14
2018-02-14T05:05:49.432Z,101617.87
2018-02-14T05:06:53.568Z,101611.78
2018-02-14T05:07:58.544Z,101615.00
2018-02-14T05:09:05.146Z,101618.26
2018-02-14T05:10:12.003Z,101615.95
2018-02-14T05:11:16.809Z,101615.23
2018-02-14T05:12:24.028Z,101611.56
2018-02-14T05:13:28.308Z,101616.14
2018-02-14T05:14:35.888Z,101609.25
2018-02-14T05:15:40.519Z,101613.23
2018-02-14T05:16:45.665Z,101616.12
2018-02-14T05:17:50.525Z,101614.14
2018-02-14T05:18:56.028Z,101613.61
2018-02-14T05:20:01.457Z,101617.48
2018-02-14T05:21:06.884Z,101621.19
2018-02-14T05:22:16.493Z,101627.75
2018-02-14T05:23:21.765Z,101629.03
2018-02-14T05:24:26.608Z,101622.90
2018-02-14T05:25:33.352Z,101624.90
2018-02-14T05:26:38.660Z,101618.28
2018-02-14T05:27:43.562Z,101622.73
2018-02-14T05:28:49.380Z,101622.59
2018-02-14T05:29:54.588Z,101619.95
2018-02-14T05:31:00.249Z,101622.12
2018-02-14T05:32:05.109Z,101618.95
2018-02-14T05:33:12.741Z,101625.91
2018-02-14T05:34:17.652Z,101629.63
2018-02-14T05:35:22.988Z,101633.25
2018-02-14T05:36:27.780Z,101632.98
2018-02-14T05:37:33.703Z,101630.50
2018-02-14T05:38:38.694Z,101634.33
2018-02-14T05:39:44.488Z,101629.81
2018-02-14T05:40:48.646Z,101632.59
2018-02-14T05:41:54.388Z,101635.80
2018-02-14T05:42:59.652Z,101630.48
2018-02-14T05:44:04.470Z,101634.43
2018-02-14T05:45:12.396Z,101637.05
2018-02-14T05:46:17.842Z,101627.34
2018-02-14T05:47:22.719Z,101629.09
2018-02-14T05:48:35.431Z,101630.17
2018-02-14T05:49:40.862Z,101636.66
2018-02-14T05:50:46.446Z,101630.15
2018-02-14T05:51:51.294Z,101629.06
2018-02-14T05:52:56.306Z,101637.03
2018-02-14T05:54:02.344Z,101630.27
2018-02-14T05:55:07.239Z,101631.50
2018-02-14T05:56:13.477Z,101637.87
2018-02-14T05:57:17.656Z,101633.53
2018-02-14T05:58:22.476Z,101633.45
2018-02-14T05:59:34.194Z,101632.95
2018-02-14T06:00:47.066Z,101634.29
2018-02-14T06:01:52.619Z,101636.45
2018-02-14T06:03:10.782Z,101636.59
2018-02-14T06:04:16.510Z,101634.70
2018-02-14T06:06:48.032Z,101644.18
2018-02-14T06:07:52.447Z,101641.88
2018-02-14T06:08:56.630Z,101643.26
2018-02-14T06:10:01.976Z,101642.78
2018-02-14T06:11:06.949Z,101646.73
2018-02-14T06:12:11.731Z,101638.20
2018-02-14T06:13:16.824Z,101647.04
2018-02-14T06:14:21.688Z,101646.41
2018-02-14T06:15:27.437Z,101650.05
2018-02-14T06:16:32.215Z,101647.11
2018-02-14T06:17:37.289Z,101652.55
2018-02-14T06:18:42.122Z,101657.91
2018-02-14T06:19:46.858Z,101653.46
2018-02-14T06:20:52.280Z,101664.02
2018-02-14T06:21:57.488Z,101661.82
2018-02-14T06:23:03.445Z,101653.86
2018-02-14T06:24:19.150Z,101661.73
2018-02-14T06:25:24.589Z,101657.58
2018-02-14T06:26:29.445Z,101660.98
2018-02-14T06:27:34.875Z,101664.72
2018-02-14T06:28:41.563Z,101661.22
2018-02-14T06:29:46.721Z,101664.47
2018-02-14T06:30:52.652Z,101658.22
2018-02-14T06:31:57.783Z,101664.36
2018-02-14T06:33:02.069Z,101664.92
2018-02-14T06:34:09.701Z,101670.64
2018-02-14T06:35:14.363Z,101664.57
2018-02-14T06:36:18.795Z,101665.80
2018-02-14T06:37:23.525Z,101669.34
2018-02-14T06:38:28.978Z,101671.72
2018-02-14T06:39:34.440Z,101675.45
2018-02-14T06:40:39.328Z,101672.90
2018-02-14T06:41:43.709Z,101672.90
2018-02-14T06:42:49.833Z,101672.78
2018-02-14T06:43:54.612Z,101671.06
2018-02-14T06:44:59.642Z,101676.06
2018-02-14T06:46:04.064Z,101673.02
2018-02-14T06:47:08.554Z,101678.37
2018-02-14T06:48:14.443Z,101678.72
2018-02-14T06:49:19.377Z,101685.90
2018-02-14T06:50:26.073Z,101687.71
2018-02-14T06:51:31.170Z,101686.50
2018-02-14T06:52:36.174Z,101684.66
2018-02-14T06:53:40.972Z,101687.71
2018-02-14T06:54:46.577Z,101680.02
2018-02-14T06:55:53.242Z,101687.77
2018-02-14T06:56:58.584Z,101685.13
2018-02-14T06:58:04.229Z,101679.45
2018-02-14T06:59:09.905Z,101677.81
2018-02-14T07:00:17.746Z,101673.42
2018-02-14T07:01:22.451Z,101679.23
2018-02-14T07:02:27.932Z,101680.86
2018-02-14T07:03:33.791Z,101680.11
2018-02-14T07:04:37.980Z,101683.31
2018-02-14T07:05:45.551Z,101689.02
2018-02-14T07:06:50.495Z,101685.59
2018-02-14T07:07:56.056Z,101682.23
2018-02-14T07:09:00.714Z,101675.83
2018-02-14T07:10:05.877Z,101680.47
2018-02-14T07:11:11.413Z,101677.43
2018-02-14T07:12:17.429Z,101680.38
2018-02-14T07:13:23.360Z,101679.56
2018-02-14T07:14:28.292Z,101685.75
2018-02-14T07:15:32.933Z,101679.60
2018-02-14T07:16:37.690Z,101688.99
2018-02-14T07:17:42.559Z,101696.11
2018-02-14T07:18:50.226Z,101693.80
2018-02-14T07:19:54.356Z,101692.91
2018-02-14T07:21:00.038Z,101691.84
2018-02-14T07:22:05.463Z,101692.89
2018-02-14T07:23:12.206Z,101691.45
2018-02-14T07:24:18.300Z,101695.36
2018-02-14T07:25:22.632Z,101691.83
2018-02-14T07:26:27.126Z,101697.95
2018-02-14T07:27:32.034Z,101691.55
2018-02-14T07:28:38.819Z,101695.66
2018-02-14T07:29:45.055Z,101699.55
2018-02-14T07:30:50.911Z,101706.36
2018-02-14T07:31:55.808Z,101708.50
2018-02-14T07:33:02.507Z,101711.34
2018-02-14T07:34:08.366Z,101710.30
2018-02-14T07:35:12.583Z,101709.02
2018-02-14T07:36:25.379Z,101709.09
2018-02-14T07:37:31.163Z,101710.23
2018-02-14T07:38:35.951Z,101707.13
2018-02-14T07:39:40.838Z,101710.05
2018-02-14T07:40:46.983Z,101714.56
2018-02-14T07:41:52.812Z,101714.74
2018-02-14T07:42:58.317Z,101708.95
2018-02-14T07:44:03.056Z,101708.66
2018-02-14T07:46:29.695Z,101713.72
2018-02-14T07:47:34.560Z,101720.27
2018-02-14T07:48:38.735Z,101719.32
2018-02-14T07:49:45.089Z,101724.22
2018-02-14T07:50:54.655Z,101724.38
2018-02-14T07:51:59.024Z,101729.76
2018-02-14T07:53:03.986Z,101724.03
2018-02-14T07:54:08.445Z,101729.89
2018-02-14T07:55:14.420Z,101729.73
2018-02-14T07:56:20.208Z,101727.52
2018-02-14T07:57:25.039Z,101727.57
2018-02-14T07:58:30.079Z,101734.42
2018-02-14T07:59:34.356Z,101731.66
2018-02-14T08:00:40.910Z,101735.67
2018-02-14T08:01:45.355Z,101747.12
2018-02-14T08:02:51.193Z,101749.14
2018-02-14T08:03:56.488Z,101743.08
2018-02-14T08:05:02.538Z,101752.69
2018-02-14T08:06:06.788Z,101748.70
2018-02-14T08:07:13.395Z,101755.32
2018-02-14T08:08:18.466Z,101758.08
2018-02-14T08:09:23.820Z,101763.19
2018-02-14T08:10:27.992Z,101762.08
2018-02-14T08:11:33.774Z,101766.83
2018-02-14T08:12:39.633Z,101763.81
2018-02-14T08:13:46.018Z,101765.96
2018-02-14T08:14:50.174Z,101758.03
2018-02-14T08:15:54.984Z,101754.88
2018-02-14T08:17:00.294Z,101760.38
2018-02-14T08:18:04.420Z,101761.41
2018-02-14T08:19:09.945Z,101759.08
2018-02-14T08:20:14.162Z,101760.52
2018-02-14T08:21:19.012Z,101759.95
2018-02-14T08:22:23.514Z,101757.11
2018-02-14T08:23:30.146Z,101762.58
2018-02-14T08:24:35.781Z,101762.18
2018-02-14T08:25:40.588Z,101762.11
2018-02-14T08:26:46.928Z,101767.27
2018-02-14T08:27:52.265Z,101761.20
2018-02-14T08:28:59.510Z,101760.69
2018-02-14T08:30:06.443Z,101764.47
2018-02-14T08:31:12.031Z,101771.70
2018-02-14T08:32:17.857Z,101776.17
2018-02-14T08:33:23.120Z,101770.23
2018-02-14T08:34:28.158Z,101773.81
2018-02-14T08:35:32.913Z,101776.84
2018-02-14T08:36:38.414Z,101778.72
2018-02-14T08:37:43.911Z,101780.94
2018-02-14T08:38:49.599Z,101791.77
2018-02-14T08:39:55.665Z,101782.04
2018-02-14T08:41:00.836Z,101790.28
2018-02-14T08:42:05.680Z,101788.05
2018-02-14T08:43:12.404Z,101781.56
2018-02-14T08:44:17.868Z,101783.13
2018-02-14T08:45:23.181Z,101785.20
2018-02-14T08:46:28.975Z,101786.47
2018-02-14T08:47:33.709Z,101786.78
2018-02-14T08:48:38.515Z,101783.91
2018-02-14T08:49:43.782Z,101790.60
2018-02-14T08:50:50.244Z,101793.54
2018-02-14T08:51:55.081Z,101795.85
2018-02-14T08:53:01.524Z,101794.06
2018-02-14T08:54:06.820Z,101798.97
2018-02-14T08:55:11.764Z,101797.73
2018-02-14T08:56:17.510Z,101794.41
2018-02-14T08:57:23.347Z,101793.45
2018-02-14T08:58:28.325Z,101789.10
2018-02-14T08:59:33.581Z,101791.87
2018-02-14T09:00:37.822Z,101788.06
2018-02-14T09:01:42.751Z,101786.18
2018-02-14T09:02:47.868Z,101784.94
2018-02-14T09:03:53.331Z,101781.88
2018-02-14T09:05:04.137Z,101777.80
2018-02-14T09:06:11.992Z,101786.57
2018-02-14T09:07:17.779Z,101774.08
2018-02-14T09:08:23.295Z,101779.70
2018-02-14T09:09:39.634Z,101783.03
2018-02-14T09:10:44.965Z,101774.77
2018-02-14T09:11:51.565Z,101770.84
2018-02-14T09:12:56.459Z,101771.93
2018-02-14T09:14:01.850Z,101770.16
2018-02-14T09:15:07.352Z,101764.81
2018-02-14T09:16:12.492Z,101768.80
2018-02-14T09:17:27.232Z,101763.91
2018-02-14T09:18:32.732Z,101764.86
2018-02-14T09:19:37.821Z,101765.12
2018-02-14T09:20:43.903Z,101772.11
2018-02-14T09:21:49.826Z,101776.13
2018-02-14T09:22:54.745Z,101776.07
2018-02-14T09:24:00.185Z,101769.11
2018-02-14T09:25:05.107Z,101769.97
2018-02-14T09:26:09.331Z,101773.21
2018-02-14T09:27:14.062Z,101767.53
2018-02-14T09:28:18.848Z,101767.36
2018-02-14T09:29:23.780Z,101761.42
2018-02-14T09:30:28.755Z,101769.18
2018-02-14T09:31:33.545Z,101768.22
2018-02-14T09:32:37.790Z,101772.02
2018-02-14T09:33:42.832Z,101763.82
2018-02-14T09:34:47.632Z,101759.69
2018-02-14T09:35:52.762Z,101765.14
2018-02-14T09:36:58.273Z,101774.84
2018-02-14T09:38:03.219Z,101768.53
2018-02-14T09:39:08.799Z,101765.45
2018-02-14T09:40:16.845Z,101767.70
2018-02-14T09:41:23.684Z,101760.75
2018-02-14T09:42:28.482Z,101765.08
2018-02-14T09:43:35.011Z,101752.94
2018-02-14T09:44:39.770Z,101762.45
2018-02-14T09:45:47.227Z,101748.10
2018-02-14T09:46:52.238Z,101762.59
2018-02-14T09:47:56.586Z,101767.09
2018-02-14T09:49:03.284Z,101761.03
2018-02-14T09:50:09.364Z,101766.02
2018-02-14T09:51:13.750Z,101774.75
2018-02-14T09:52:21.036Z,101779.75
2018-02-14T09:53:26.901Z,101775.42
2018-02-14T09:54:35.640Z,101796.25
2018-02-14T09:55:40.802Z,101793.16
2018-02-14T09:56:49.110Z,101790.00
2018-02-14T09:57:53.951Z,101787.56
2018-02-14T09:58:59.441Z,101794.31
2018-02-14T10:00:07.526Z,101794.00
2018-02-14T10:02:25.275Z,101796.78
2018-02-14T10:03:30.869Z,101779.56
2018-02-14T10:04:38.464Z,101786.63
2018-02-14T10:05:44.185Z,101781.86
2018-02-14T10:06:53.182Z,101782.05
2018-02-14T10:07:58.900Z,101786.03
2018-02-14T10:09:04.826Z,101785.73
2018-02-14T10:10:10.328Z,101784.30
2018-02-14T10:11:15.724Z,101784.95
2018-02-14T10:12:20.866Z,101783.19
2018-02-14T10:13:27.650Z,101779.20
2018-02-14T10:14:33.201Z,101778.70
2018-02-14T10:15:39.160Z,101781.86
2018-02-14T10:16:45.060Z,101774.38
2018-02-14T10:17:51.131Z,101772.95
2018-02-14T10:18:58.688Z,101776.42
2018-02-14T10:20:05.046Z,101776.70
2018-02-14T10:21:10.578Z,101776.35
2018-02-14T10:22:17.860Z,101786.63
2018-02-14T10:23:22.670Z,101781.34
2018-02-14T10:24:26.925Z,101786.25
2018-02-14T10:25:32.482Z,101786.13
2018-02-14T10:26:38.169Z,101789.36
2018-02-14T10:27:42.330Z,101784.13
2018-02-14T10:28:48.849Z,101782.98
2018-02-14T10:29:53.598Z,101788.67
2018-02-14T10:30:58.932Z,101784.12
2018-02-14T10:32:04.521Z,101779.10
2018-02-14T10:33:09.479Z,101778.52
2018-02-14T10:34:16.552Z,101775.66
2018-02-14T10:35:23.468Z,101775.27
2018-02-14T10:36:28.969Z,101770.03
2018-02-14T10:37:33.764Z,101775.39
2018-02-14T10:38:38.937Z,101782.17
2018-02-14T10:40:54.652Z,101775.44
2018-02-14T10:41:59.479Z,101773.28
2018-02-14T10:43:07.850Z,101770.52
2018-02-14T10:44:12.793Z,101775.33
2018-02-14T10:45:19.918Z,101774.05
2018-02-14T10:46:25.009Z,101777.03
2018-02-14T10:47:29.851Z,101769.52
2018-02-14T10:48:34.081Z,101781.94
2018-02-14T10:49:38.927Z,101773.35
2018-02-14T10:52:02.616Z,101770.66
2018-02-14T10:53:08.642Z,101776.00
2018-02-14T10:54:12.932Z,101765.55
2018-02-14T10:55:19.364Z,101767.93
2018-02-14T10:56:25.651Z,101772.84
2018-02-14T10:57:31.098Z,101770.89
2018-02-14T10:58:35.958Z,101770.06
2018-02-14T10:59:40.768Z,101776.75
2018-02-14T11:00:51.207Z,101775.73
2018-02-14T11:02:00.407Z,101778.98
2018-02-14T11:03:10.531Z,101775.73
2018-02-14T11:04:19.843Z,101778.22
2018-02-14T11:05:28.733Z,101782.97
2018-02-14T11:06:36.609Z,101780.51
2018-02-14T11:08:51.187Z,101777.38
2018-02-14T11:09:56.058Z,101776.05
2018-02-14T11:11:00.234Z,101783.56
2018-02-14T11:12:04.802Z,101779.44
2018-02-14T11:13:10.269Z,101785.08
2018-02-14T11:14:14.495Z,101776.09
2018-02-14T11:15:21.493Z,101771.99
2018-02-14T11:16:26.907Z,101769.48
2018-02-14T11:17:31.843Z,101769.78
2018-02-14T11:18:36.658Z,101780.68
2018-02-14T11:19:40.875Z,101768.83
2018-02-14T11:20:47.392Z,101764.33
2018-02-14T11:21:51.968Z,101769.42
2018-02-14T11:22:56.836Z,101762.56
2018-02-14T11:24:01.827Z,101770.41
2018-02-14T11:25:07.696Z,101770.21
2018-02-14T11:26:12.685Z,101773.97
2018-02-14T11:27:17.898Z,101773.16
2018-02-14T11:28:23.543Z,101774.48
2018-02-14T11:29:27.727Z,101774.04
2018-02-14T11:30:32.160Z,101763.89
2018-02-14T11:31:37.024Z,101759.43
2018-02-14T11:32:41.811Z,101769.63
2018-02-14T11:33:56.407Z,101765.84
2018-02-14T11:35:00.735Z,101768.81
2018-02-14T11:36:05.366Z,101763.58
2018-02-14T11:37:10.314Z,101773.94
2018-02-14T11:38:14.493Z,101769.81
2018-02-14T11:39:20.195Z,101766.45
2018-02-14T11:40:24.844Z,101764.07
2018-02-14T11:41:30.426Z,101762.27
2018-02-14T11:42:34.617Z,101762.20
2018-02-14T11:43:39.508Z,101761.31
2018-02-14T11:44:43.752Z,101765.47
2018-02-14T11:45:49.438Z,101760.42
2018-02-14T11:46:54.617Z,101759.79
2018-02-14T11:48:00.342Z,101764.77
2018-02-14T11:49:05.951Z,101767.12
2018-02-14T11:50:11.490Z,101758.22
2018-02-14T11:51:16.416Z,101762.12
2018-02-14T11:52:32.524Z,101766.41
2018-02-14T11:53:39.274Z,101760.87
2018-02-14T11:54:51.775Z,101769.00
2018-02-14T11:55:56.596Z,101762.12
2018-02-14T11:57:01.554Z,101767.46
2018-02-14T11:58:06.540Z,101766.98
2018-02-14T11:59:10.895Z,101763.08
2018-02-14T12:00:18.313Z,101762.78
2018-02-14T12:01:22.562Z,101764.81
2018-02-14T12:02:28.862Z,101753.97
2018-02-14T12:03:35.081Z,101758.50
2018-02-14T12:04:40.844Z,101762.70
2018-02-14T12:05:45.695Z,101766.94
2018-02-14T12:06:50.512Z,101761.42
2018-02-14T12:07:55.491Z,101768.66
2018-02-14T12:09:00.584Z,101772.95
2018-02-14T12:10:05.927Z,101768.34
2018-02-14T12:11:11.440Z,101764.98
2018-02-14T12:12:17.518Z,101764.95
2018-02-14T12:13:22.600Z,101754.00
2018-02-14T12:14:28.172Z,101764.10
2018-02-14T12:15:33.209Z,101750.27
2018-02-14T12:16:39.224Z,101755.23
2018-02-14T12:17:44.408Z,101756.45
2018-02-14T12:18:55.012Z,101750.02
2018-02-14T12:20:00.166Z,101744.99
2018-02-14T12:21:05.465Z,101746.73
2018-02-14T12:22:11.276Z,101746.77
2018-02-14T12:23:16.902Z,101742.78
2018-02-14T12:24:22.227Z,101745.91
2018-02-14T12:26:26.536Z,101741.39
2018-02-14T12:27:30.958Z,101745.66
2018-02-14T12:28:36.235Z,101745.50
2018-02-14T12:29:40.573Z,101733.84
2018-02-14T12:30:44.759Z,101742.11
2018-02-14T12:31:49.971Z,101741.84
2018-02-14T12:32:54.947Z,101748.73
2018-02-14T12:33:59.172Z,101739.65
2018-02-14T12:35:04.982Z,101740.87
2018-02-14T12:36:11.150Z,101746.86
2018-02-14T12:37:15.431Z,101724.41
2018-02-14T12:38:20.094Z,101733.46